sensor_id;sensor_type;location;lat;lon;timestamp;temperature;humidity
19389;DHT22;9830;41.876;23.474;2022-07-23T00:00:17;14.90;99.90
19389;DHT22;9830;41.876;23.474;2022-07-23T00:02:43;14.90;99.70
19389;DHT22;9830;41.876;23.474;2022-07-23T00:05:10;14.90;99.70
19389;DHT22;9830;41.876;23.474;2022-07-23T00:07:35;14.90;99.70
19389;DHT22;9830;41.876;23.474;2022-07-23T00:10:02;14.80;99.70
19389;DHT22;9830;41.876;23.474;2022-07-23T00:12:27;14.80;99.80
19389;DHT22;9830;41.876;23.474;2022-07-23T00:14:53;14.50;99.90
19389;DHT22;9830;41.876;23.474;2022-07-23T00:17:19;14.50;99.90
19389;DHT22;9830;41.876;23.474;2022-07-23T00:19:44;14.50;99.90
19389;DHT22;9830;41.876;23.474;2022-07-23T00:22:10;14.50;99.90
19389;DHT22;9830;41.876;23.474;2022-07-23T00:24:36;14.30;99.90
19389;DHT22;9830;41.876;23.474;2022-07-23T00:27:01;14.40;99.90
19389;DHT22;9830;41.876;23.474;2022-07-23T00:29:27;14.30;99.90
19389;DHT22;9830;41.876;23.474;2022-07-23T00:31:53;14.30;99.90
19389;DHT22;9830;41.876;23.474;2022-07-23T00:34:18;14.30;99.90
19389;DHT22;9830;41.876;23.474;2022-07-23T00:36:44;14.20;99.90
19389;DHT22;9830;41.876;23.474;2022-07-23T00:39:10;14.20;99.90
19389;DHT22;9830;41.876;23.474;2022-07-23T00:41:35;14.30;99.90
19389;DHT22;9830;41.876;23.474;2022-07-23T00:44:21;14.30;99.90
19389;DHT22;9830;41.876;23.474;2022-07-23T00:46:50;14.20;99.90
19389;DHT22;9830;41.876;23.474;2022-07-23T00:49:28;14.20;99.90
19389;DHT22;9830;41.876;23.474;2022-07-23T00:51:55;14.10;99.90
19389;DHT22;9830;41.876;23.474;2022-07-23T00:54:24;13.90;99.90
19389;DHT22;9830;41.876;23.474;2022-07-23T00:56:50;13.70;99.90
19389;DHT22;9830;41.876;23.474;2022-07-23T00:59:16;13.80;99.90
19389;DHT22;9830;41.876;23.474;2022-07-23T01:01:42;13.70;99.90
19389;DHT22;9830;41.876;23.474;2022-07-23T01:04:10;13.40;99.90
19389;DHT22;9830;41.876;23.474;2022-07-23T01:06:37;13.30;99.90
19389;DHT22;9830;41.876;23.474;2022-07-23T01:09:05;13.30;99.90
19389;DHT22;9830;41.876;23.474;2022-07-23T01:11:35;13.40;99.90
19389;DHT22;9830;41.876;23.474;2022-07-23T01:14:12;13.50;99.90
19389;DHT22;9830;41.876;23.474;2022-07-23T01:16:39;13.60;99.90
19389;DHT22;9830;41.876;23.474;2022-07-23T01:19:05;13.70;99.90
19389;DHT22;9830;41.876;23.474;2022-07-23T01:21:37;13.70;99.90
19389;DHT22;9830;41.876;23.474;2022-07-23T01:24:03;13.50;99.90
19389;DHT22;9830;41.876;23.474;2022-07-23T01:26:29;13.50;99.90
19389;DHT22;9830;41.876;23.474;2022-07-23T01:28:55;13.40;99.90
19389;DHT22;9830;41.876;23.474;2022-07-23T01:31:21;13.40;99.90
19389;DHT22;9830;41.876;23.474;2022-07-23T01:33:47;13.40;99.90
19389;DHT22;9830;41.876;23.474;2022-07-23T01:36:13;13.00;99.90
19389;DHT22;9830;41.876;23.474;2022-07-23T01:38:39;12.80;99.90
19389;DHT22;9830;41.876;23.474;2022-07-23T01:41:05;12.70;99.90
19389;DHT22;9830;41.876;23.474;2022-07-23T01:43:30;12.90;99.90
19389;DHT22;9830;41.876;23.474;2022-07-23T01:45:56;13.00;99.90
19389;DHT22;9830;41.876;23.474;2022-07-23T01:48:22;13.00;99.90
19389;DHT22;9830;41.876;23.474;2022-07-23T01:50:47;13.10;99.90
19389;DHT22;9830;41.876;23.474;2022-07-23T01:53:14;13.10;99.90
19389;DHT22;9830;41.876;23.474;2022-07-23T01:55:40;12.80;99.90
19389;DHT22;9830;41.876;23.474;2022-07-23T01:58:06;12.70;99.90
19389;DHT22;9830;41.876;23.474;2022-07-23T02:00:31;12.50;99.90
19389;DHT22;9830;41.876;23.474;2022-07-23T02:02:57;12.50;99.90
19389;DHT22;9830;41.876;23.474;2022-07-23T02:05:26;12.70;99.90
19389;DHT22;9830;41.876;23.474;2022-07-23T02:07:54;12.80;99.90
19389;DHT22;9830;41.876;23.474;2022-07-23T02:10:20;12.90;99.90
19389;DHT22;9830;41.876;23.474;2022-07-23T02:12:46;12.90;99.90
19389;DHT22;9830;41.876;23.474;2022-07-23T02:15:12;12.90;99.90
19389;DHT22;9830;41.876;23.474;2022-07-23T02:17:37;12.90;99.90
19389;DHT22;9830;41.876;23.474;2022-07-23T02:20:04;13.00;99.90
19389;DHT22;9830;41.876;23.474;2022-07-23T02:22:30;13.00;99.90
19389;DHT22;9830;41.876;23.474;2022-07-23T02:24:56;13.00;99.90
19389;DHT22;9830;41.876;23.474;2022-07-23T02:27:22;12.70;99.90
19389;DHT22;9830;41.876;23.474;2022-07-23T02:29:48;12.40;99.90
19389;DHT22;9830;41.876;23.474;2022-07-23T02:32:14;12.50;99.90
19389;DHT22;9830;41.876;23.474;2022-07-23T02:34:40;12.60;99.90
19389;DHT22;9830;41.876;23.474;2022-07-23T02:37:06;12.70;99.90
19389;DHT22;9830;41.876;23.474;2022-07-23T02:39:34;12.50;99.90
19389;DHT22;9830;41.876;23.474;2022-07-23T02:42:00;12.40;99.90
19389;DHT22;9830;41.876;23.474;2022-07-23T02:44:26;12.20;99.90
19389;DHT22;9830;41.876;23.474;2022-07-23T02:46:52;12.00;99.90
19389;DHT22;9830;41.876;23.474;2022-07-23T02:49:18;11.90;99.90
19389;DHT22;9830;41.876;23.474;2022-07-23T02:51:43;11.90;99.90
19389;DHT22;9830;41.876;23.474;2022-07-23T02:54:09;12.00;99.90
19389;DHT22;9830;41.876;23.474;2022-07-23T02:56:35;12.10;99.90
19389;DHT22;9830;41.876;23.474;2022-07-23T02:59:00;12.20;99.90
19389;DHT22;9830;41.876;23.474;2022-07-23T03:01:26;12.30;99.90
19389;DHT22;9830;41.876;23.474;2022-07-23T03:03:52;12.10;99.90
19389;DHT22;9830;41.876;23.474;2022-07-23T03:06:17;12.10;99.90
19389;DHT22;9830;41.876;23.474;2022-07-23T03:08:43;12.20;99.90
19389;DHT22;9830;41.876;23.474;2022-07-23T03:11:09;12.30;99.90
19389;DHT22;9830;41.876;23.474;2022-07-23T03:13:37;12.30;99.90
19389;DHT22;9830;41.876;23.474;2022-07-23T03:16:03;12.40;99.90
19389;DHT22;9830;41.876;23.474;2022-07-23T03:18:29;12.20;99.90
19389;DHT22;9830;41.876;23.474;2022-07-23T03:20:55;12.20;99.90
19389;DHT22;9830;41.876;23.474;2022-07-23T03:23:21;12.20;99.90
19389;DHT22;9830;41.876;23.474;2022-07-23T03:25:46;12.20;99.90
19389;DHT22;9830;41.876;23.474;2022-07-23T03:28:14;12.20;99.90
19389;DHT22;9830;41.876;23.474;2022-07-23T03:30:45;12.20;99.90
19389;DHT22;9830;41.876;23.474;2022-07-23T03:33:18;12.30;99.90
19389;DHT22;9830;41.876;23.474;2022-07-23T03:35:45;12.40;99.90
19389;DHT22;9830;41.876;23.474;2022-07-23T03:38:11;12.50;99.90
19389;DHT22;9830;41.876;23.474;2022-07-23T03:40:37;12.70;99.90
19389;DHT22;9830;41.876;23.474;2022-07-23T03:43:03;12.80;99.90
19389;DHT22;9830;41.876;23.474;2022-07-23T03:45:29;12.80;99.90
19389;DHT22;9830;41.876;23.474;2022-07-23T03:47:55;12.90;99.90
19389;DHT22;9830;41.876;23.474;2022-07-23T03:50:21;12.90;99.90
19389;DHT22;9830;41.876;23.474;2022-07-23T03:52:46;12.90;99.90
19389;DHT22;9830;41.876;23.474;2022-07-23T03:55:12;12.80;99.90
19389;DHT22;9830;41.876;23.474;2022-07-23T03:57:38;12.60;99.90
19389;DHT22;9830;41.876;23.474;2022-07-23T04:00:05;12.80;99.90
19389;DHT22;9830;41.876;23.474;2022-07-23T04:02:32;13.40;99.90
19389;DHT22;9830;41.876;23.474;2022-07-23T04:04:58;14.20;99.10
19389;DHT22;9830;41.876;23.474;2022-07-23T04:07:25;14.40;98.50
19389;DHT22;9830;41.876;23.474;2022-07-23T04:09:50;14.90;97.00
19389;DHT22;9830;41.876;23.474;2022-07-23T04:12:16;15.70;95.40
19389;DHT22;9830;41.876;23.474;2022-07-23T04:14:42;16.30;93.10
19389;DHT22;9830;41.876;23.474;2022-07-23T04:17:08;17.10;91.40
19389;DHT22;9830;41.876;23.474;2022-07-23T04:19:33;17.90;89.00
19389;DHT22;9830;41.876;23.474;2022-07-23T04:22:01;18.70;83.40
19389;DHT22;9830;41.876;23.474;2022-07-23T04:24:26;19.00;79.90
19389;DHT22;9830;41.876;23.474;2022-07-23T04:26:52;19.00;79.50
19389;DHT22;9830;41.876;23.474;2022-07-23T04:29:18;20.80;74.10
19389;DHT22;9830;41.876;23.474;2022-07-23T04:31:44;21.30;67.40
19389;DHT22;9830;41.876;23.474;2022-07-23T04:34:09;20.60;69.20
19389;DHT22;9830;41.876;23.474;2022-07-23T04:36:35;20.80;70.10
19389;DHT22;9830;41.876;23.474;2022-07-23T04:39:01;21.00;69.20
19389;DHT22;9830;41.876;23.474;2022-07-23T04:41:26;21.10;68.50
19389;DHT22;9830;41.876;23.474;2022-07-23T04:43:52;21.80;65.10
19389;DHT22;9830;41.876;23.474;2022-07-23T04:46:18;22.50;62.10
19389;DHT22;9830;41.876;23.474;2022-07-23T04:48:43;22.30;61.80
19389;DHT22;9830;41.876;23.474;2022-07-23T04:51:09;22.50;61.30
19389;DHT22;9830;41.876;23.474;2022-07-23T04:53:37;22.70;60.00
19389;DHT22;9830;41.876;23.474;2022-07-23T04:56:04;22.40;62.10
19389;DHT22;9830;41.876;23.474;2022-07-23T04:58:29;22.90;59.30
19389;DHT22;9830;41.876;23.474;2022-07-23T05:00:57;22.40;60.80
19389;DHT22;9830;41.876;23.474;2022-07-23T05:03:23;22.70;59.80
19389;DHT22;9830;41.876;23.474;2022-07-23T05:05:49;22.20;61.60
19389;DHT22;9830;41.876;23.474;2022-07-23T05:08:15;22.40;62.70
19389;DHT22;9830;41.876;23.474;2022-07-23T05:10:40;22.60;60.60
19389;DHT22;9830;41.876;23.474;2022-07-23T05:13:06;23.60;58.80
19389;DHT22;9830;41.876;23.474;2022-07-23T05:15:32;24.50;55.00
19389;DHT22;9830;41.876;23.474;2022-07-23T05:17:58;24.70;54.80
19389;DHT22;9830;41.876;23.474;2022-07-23T05:20:23;25.50;53.90
19389;DHT22;9830;41.876;23.474;2022-07-23T05:22:49;26.40;50.90
19389;DHT22;9830;41.876;23.474;2022-07-23T05:25:15;26.60;48.90
19389;DHT22;9830;41.876;23.474;2022-07-23T05:27:40;26.00;49.60
19389;DHT22;9830;41.876;23.474;2022-07-23T05:30:07;25.40;50.60
19389;DHT22;9830;41.876;23.474;2022-07-23T05:32:32;26.00;49.60
19389;DHT22;9830;41.876;23.474;2022-07-23T05:34:58;25.20;51.40
19389;DHT22;9830;41.876;23.474;2022-07-23T05:37:24;26.70;48.80
19389;DHT22;9830;41.876;23.474;2022-07-23T05:39:50;28.80;44.00
19389;DHT22;9830;41.876;23.474;2022-07-23T05:42:16;27.40;45.80
19389;DHT22;9830;41.876;23.474;2022-07-23T05:44:41;25.90;49.00
19389;DHT22;9830;41.876;23.474;2022-07-23T05:47:07;26.30;48.40
19389;DHT22;9830;41.876;23.474;2022-07-23T05:49:33;26.40;48.70
19389;DHT22;9830;41.876;23.474;2022-07-23T05:51:58;27.50;46.60
19389;DHT22;9830;41.876;23.474;2022-07-23T05:54:28;28.90;44.10
19389;DHT22;9830;41.876;23.474;2022-07-23T05:56:54;29.50;42.90
19389;DHT22;9830;41.876;23.474;2022-07-23T05:59:19;29.40;43.20
19389;DHT22;9830;41.876;23.474;2022-07-23T06:01:45;31.00;40.70
19389;DHT22;9830;41.876;23.474;2022-07-23T06:04:11;30.70;40.50
19389;DHT22;9830;41.876;23.474;2022-07-23T06:06:36;32.40;38.10
19389;DHT22;9830;41.876;23.474;2022-07-23T06:09:02;32.70;37.20
19389;DHT22;9830;41.876;23.474;2022-07-23T06:11:28;32.80;36.20
19389;DHT22;9830;41.876;23.474;2022-07-23T06:13:55;31.10;37.80
19389;DHT22;9830;41.876;23.474;2022-07-23T06:16:20;30.00;39.90
19389;DHT22;9830;41.876;23.474;2022-07-23T06:18:46;29.60;40.70
19389;DHT22;9830;41.876;23.474;2022-07-23T06:21:12;31.90;38.30
19389;DHT22;9830;41.876;23.474;2022-07-23T06:23:37;32.30;36.80
19389;DHT22;9830;41.876;23.474;2022-07-23T06:26:03;33.00;35.60
19389;DHT22;9830;41.876;23.474;2022-07-23T06:28:29;32.60;35.90
19389;DHT22;9830;41.876;23.474;2022-07-23T06:30:54;32.50;36.40
19389;DHT22;9830;41.876;23.474;2022-07-23T06:33:20;32.90;36.20
19389;DHT22;9830;41.876;23.474;2022-07-23T06:35:46;33.70;36.20
19389;DHT22;9830;41.876;23.474;2022-07-23T06:38:11;34.50;34.90
19389;DHT22;9830;41.876;23.474;2022-07-23T06:40:38;34.30;35.00
19389;DHT22;9830;41.876;23.474;2022-07-23T06:43:03;34.50;34.90
19389;DHT22;9830;41.876;23.474;2022-07-23T06:45:29;34.30;34.60
19389;DHT22;9830;41.876;23.474;2022-07-23T06:47:55;33.80;34.70
19389;DHT22;9830;41.876;23.474;2022-07-23T06:50:21;34.80;33.90
19389;DHT22;9830;41.876;23.474;2022-07-23T06:52:46;34.90;32.60
19389;DHT22;9830;41.876;23.474;2022-07-23T06:55:12;35.40;32.30
19389;DHT22;9830;41.876;23.474;2022-07-23T06:57:38;34.50;32.30
19389;DHT22;9830;41.876;23.474;2022-07-23T07:00:04;34.40;33.80
19389;DHT22;9830;41.876;23.474;2022-07-23T07:02:31;34.80;33.50
19389;DHT22;9830;41.876;23.474;2022-07-23T07:04:56;34.70;33.20
19389;DHT22;9830;41.876;23.474;2022-07-23T07:07:22;34.80;33.00
19389;DHT22;9830;41.876;23.474;2022-07-23T07:09:47;35.30;31.30
19389;DHT22;9830;41.876;23.474;2022-07-23T07:12:13;36.70;30.20
19389;DHT22;9830;41.876;23.474;2022-07-23T07:14:39;35.80;29.20
19389;DHT22;9830;41.876;23.474;2022-07-23T07:17:04;35.70;29.60
19389;DHT22;9830;41.876;23.474;2022-07-23T07:19:30;35.90;30.90
19389;DHT22;9830;41.876;23.474;2022-07-23T07:21:56;37.20;27.80
19389;DHT22;9830;41.876;23.474;2022-07-23T07:24:21;38.00;27.50
19389;DHT22;9830;41.876;23.474;2022-07-23T07:26:47;37.30;27.50
19389;DHT22;9830;41.876;23.474;2022-07-23T07:29:13;36.90;28.10
19389;DHT22;9830;41.876;23.474;2022-07-23T07:31:39;36.20;28.30
19389;DHT22;9830;41.876;23.474;2022-07-23T07:34:04;35.80;28.40
19389;DHT22;9830;41.876;23.474;2022-07-23T07:36:30;36.20;29.00
19389;DHT22;9830;41.876;23.474;2022-07-23T07:38:56;36.90;28.00
19389;DHT22;9830;41.876;23.474;2022-07-23T07:41:21;37.30;26.60
19389;DHT22;9830;41.876;23.474;2022-07-23T07:43:50;37.00;26.80
19389;DHT22;9830;41.876;23.474;2022-07-23T07:46:17;37.60;26.50
19389;DHT22;9830;41.876;23.474;2022-07-23T07:48:43;36.70;27.50
19389;DHT22;9830;41.876;23.474;2022-07-23T07:51:08;36.90;27.50
19389;DHT22;9830;41.876;23.474;2022-07-23T07:53:34;37.20;26.80
19389;DHT22;9830;41.876;23.474;2022-07-23T07:56:00;36.80;28.20
19389;DHT22;9830;41.876;23.474;2022-07-23T07:58:26;36.20;27.80
19389;DHT22;9830;41.876;23.474;2022-07-23T08:00:51;37.80;27.70
19389;DHT22;9830;41.876;23.474;2022-07-23T08:03:17;38.70;26.30
19389;DHT22;9830;41.876;23.474;2022-07-23T08:05:43;38.30;26.20
19389;DHT22;9830;41.876;23.474;2022-07-23T08:08:09;39.40;24.80
19389;DHT22;9830;41.876;23.474;2022-07-23T08:10:40;39.00;25.10
19389;DHT22;9830;41.876;23.474;2022-07-23T08:13:06;41.20;22.90
19389;DHT22;9830;41.876;23.474;2022-07-23T08:15:32;40.40;23.20
19389;DHT22;9830;41.876;23.474;2022-07-23T08:17:58;39.70;24.90
19389;DHT22;9830;41.876;23.474;2022-07-23T08:20:25;39.30;23.60
19389;DHT22;9830;41.876;23.474;2022-07-23T08:22:59;38.90;26.10
19389;DHT22;9830;41.876;23.474;2022-07-23T08:25:30;39.20;26.10
19389;DHT22;9830;41.876;23.474;2022-07-23T08:27:58;39.70;24.70
19389;DHT22;9830;41.876;23.474;2022-07-23T08:30:24;40.50;24.30
19389;DHT22;9830;41.876;23.474;2022-07-23T08:33:16;40.20;23.40
19389;DHT22;9830;41.876;23.474;2022-07-23T08:35:49;40.10;24.80
19389;DHT22;9830;41.876;23.474;2022-07-23T08:38:19;40.10;24.40
19389;DHT22;9830;41.876;23.474;2022-07-23T08:40:49;40.80;24.90
19389;DHT22;9830;41.876;23.474;2022-07-23T08:43:21;41.20;25.10
19389;DHT22;9830;41.876;23.474;2022-07-23T08:45:49;40.70;24.40
19389;DHT22;9830;41.876;23.474;2022-07-23T08:48:17;40.90;24.50
19389;DHT22;9830;41.876;23.474;2022-07-23T08:50:46;41.70;24.20
19389;DHT22;9830;41.876;23.474;2022-07-23T08:53:12;41.60;23.90
19389;DHT22;9830;41.876;23.474;2022-07-23T08:55:38;41.30;24.00
19389;DHT22;9830;41.876;23.474;2022-07-23T08:58:05;40.90;24.80
19389;DHT22;9830;41.876;23.474;2022-07-23T09:00:31;41.40;24.80
19389;DHT22;9830;41.876;23.474;2022-07-23T09:02:57;41.80;25.20
19389;DHT22;9830;41.876;23.474;2022-07-23T09:05:23;42.20;24.50
19389;DHT22;9830;41.876;23.474;2022-07-23T09:11:00;42.30;24.80
19389;DHT22;9830;41.876;23.474;2022-07-23T09:16:11;42.00;25.80
19389;DHT22;9830;41.876;23.474;2022-07-23T09:18:44;42.30;24.90
19389;DHT22;9830;41.876;23.474;2022-07-23T09:21:26;41.70;25.50
19389;DHT22;9830;41.876;23.474;2022-07-23T09:24:00;42.20;25.70
19389;DHT22;9830;41.876;23.474;2022-07-23T09:26:40;42.90;25.60
19389;DHT22;9830;41.876;23.474;2022-07-23T09:29:19;43.40;24.40
19389;DHT22;9830;41.876;23.474;2022-07-23T09:32:00;43.70;23.80
19389;DHT22;9830;41.876;23.474;2022-07-23T09:34:31;43.70;22.40
19389;DHT22;9830;41.876;23.474;2022-07-23T09:39:36;44.10;19.10
19389;DHT22;9830;41.876;23.474;2022-07-23T09:42:25;43.90;19.40
19389;DHT22;9830;41.876;23.474;2022-07-23T09:44:53;43.90;19.70
19389;DHT22;9830;41.876;23.474;2022-07-23T09:47:19;44.20;19.40
19389;DHT22;9830;41.876;23.474;2022-07-23T09:52:33;43.00;21.20
19389;DHT22;9830;41.876;23.474;2022-07-23T09:55:02;43.30;19.20
19389;DHT22;9830;41.876;23.474;2022-07-23T09:57:28;42.80;20.20
19389;DHT22;9830;41.876;23.474;2022-07-23T09:59:58;42.50;20.80
19389;DHT22;9830;41.876;23.474;2022-07-23T10:02:26;42.00;20.50
19389;DHT22;9830;41.876;23.474;2022-07-23T10:04:54;41.90;20.60
19389;DHT22;9830;41.876;23.474;2022-07-23T10:07:23;41.20;21.10
19389;DHT22;9830;41.876;23.474;2022-07-23T10:09:52;41.00;21.10
19389;DHT22;9830;41.876;23.474;2022-07-23T10:12:19;40.60;21.10
19389;DHT22;9830;41.876;23.474;2022-07-23T10:15:07;40.40;21.60
19389;DHT22;9830;41.876;23.474;2022-07-23T10:17:34;40.10;22.20
19389;DHT22;9830;41.876;23.474;2022-07-23T10:20:00;40.40;22.60
19389;DHT22;9830;41.876;23.474;2022-07-23T10:22:30;40.00;20.60
19389;DHT22;9830;41.876;23.474;2022-07-23T10:30:44;39.00;22.50
19389;DHT22;9830;41.876;23.474;2022-07-23T10:33:51;39.20;22.80
19389;DHT22;9830;41.876;23.474;2022-07-23T10:41:39;39.70;22.00
19389;DHT22;9830;41.876;23.474;2022-07-23T10:44:19;39.80;21.50
19389;DHT22;9830;41.876;23.474;2022-07-23T10:49:28;39.60;21.20
19389;DHT22;9830;41.876;23.474;2022-07-23T10:52:27;39.70;21.60
19389;DHT22;9830;41.876;23.474;2022-07-23T10:54:55;40.00;21.20
19389;DHT22;9830;41.876;23.474;2022-07-23T10:57:25;40.20;20.40
19389;DHT22;9830;41.876;23.474;2022-07-23T11:02:28;39.40;22.00
19389;DHT22;9830;41.876;23.474;2022-07-23T11:05:00;39.30;21.20
19389;DHT22;9830;41.876;23.474;2022-07-23T11:07:26;39.30;22.10
19389;DHT22;9830;41.876;23.474;2022-07-23T11:09:52;39.60;22.70
19389;DHT22;9830;41.876;23.474;2022-07-23T11:17:34;39.80;21.60
19389;DHT22;9830;41.876;23.474;2022-07-23T11:22:36;39.10;21.20
19389;DHT22;9830;41.876;23.474;2022-07-23T11:25:02;39.00;21.70
19389;DHT22;9830;41.876;23.474;2022-07-23T11:27:41;38.60;21.60
19389;DHT22;9830;41.876;23.474;2022-07-23T11:30:08;38.40;21.20
19389;DHT22;9830;41.876;23.474;2022-07-23T11:32:39;38.80;22.30
19389;DHT22;9830;41.876;23.474;2022-07-23T11:35:26;39.00;21.70
19389;DHT22;9830;41.876;23.474;2022-07-23T11:37:56;39.30;22.90
19389;DHT22;9830;41.876;23.474;2022-07-23T11:40:28;39.70;23.30
19389;DHT22;9830;41.876;23.474;2022-07-23T11:42:59;39.70;22.60
19389;DHT22;9830;41.876;23.474;2022-07-23T11:45:33;40.00;23.80
19389;DHT22;9830;41.876;23.474;2022-07-23T11:48:00;40.10;23.10
19389;DHT22;9830;41.876;23.474;2022-07-23T11:50:25;40.20;23.00
19389;DHT22;9830;41.876;23.474;2022-07-23T11:52:53;40.50;24.10
19389;DHT22;9830;41.876;23.474;2022-07-23T11:55:19;40.20;22.60
19389;DHT22;9830;41.876;23.474;2022-07-23T11:57:45;40.20;22.60
19389;DHT22;9830;41.876;23.474;2022-07-23T12:00:15;39.80;22.50
19389;DHT22;9830;41.876;23.474;2022-07-23T12:02:44;39.60;23.30
19389;DHT22;9830;41.876;23.474;2022-07-23T12:05:33;39.10;23.60
19389;DHT22;9830;41.876;23.474;2022-07-23T12:08:01;39.40;23.00
19389;DHT22;9830;41.876;23.474;2022-07-23T12:13:06;39.20;22.90
19389;DHT22;9830;41.876;23.474;2022-07-23T12:15:34;39.20;23.50
19389;DHT22;9830;41.876;23.474;2022-07-23T12:18:03;39.10;24.20
19389;DHT22;9830;41.876;23.474;2022-07-23T12:20:33;39.00;23.20
19389;DHT22;9830;41.876;23.474;2022-07-23T12:23:02;38.90;24.00
19389;DHT22;9830;41.876;23.474;2022-07-23T12:25:31;38.80;23.70
19389;DHT22;9830;41.876;23.474;2022-07-23T12:30:44;38.70;22.70
19389;DHT22;9830;41.876;23.474;2022-07-23T12:33:21;38.70;23.10
19389;DHT22;9830;41.876;23.474;2022-07-23T12:35:48;38.70;24.60
19389;DHT22;9830;41.876;23.474;2022-07-23T12:38:17;38.80;24.00
19389;DHT22;9830;41.876;23.474;2022-07-23T12:43:23;38.70;23.60
19389;DHT22;9830;41.876;23.474;2022-07-23T12:46:04;38.50;23.10
19389;DHT22;9830;41.876;23.474;2022-07-23T12:50:58;38.40;23.00
19389;DHT22;9830;41.876;23.474;2022-07-23T12:53:30;38.20;23.70
19389;DHT22;9830;41.876;23.474;2022-07-23T12:56:09;38.40;23.30
19389;DHT22;9830;41.876;23.474;2022-07-23T13:01:06;38.20;23.40
19389;DHT22;9830;41.876;23.474;2022-07-23T13:03:38;38.30;22.40
19389;DHT22;9830;41.876;23.474;2022-07-23T13:06:07;38.40;23.60
19389;DHT22;9830;41.876;23.474;2022-07-23T13:08:34;38.60;22.80
19389;DHT22;9830;41.876;23.474;2022-07-23T13:11:01;38.50;23.60
19389;DHT22;9830;41.876;23.474;2022-07-23T13:13:29;38.40;23.70
19389;DHT22;9830;41.876;23.474;2022-07-23T13:15:56;38.30;24.00
19389;DHT22;9830;41.876;23.474;2022-07-23T13:18:22;38.10;22.60
19389;DHT22;9830;41.876;23.474;2022-07-23T13:20:49;38.20;23.10
19389;DHT22;9830;41.876;23.474;2022-07-23T13:23:16;38.10;22.90
19389;DHT22;9830;41.876;23.474;2022-07-23T13:25:42;38.10;23.70
19389;DHT22;9830;41.876;23.474;2022-07-23T13:28:08;38.00;23.30
19389;DHT22;9830;41.876;23.474;2022-07-23T13:30:34;37.80;22.60
19389;DHT22;9830;41.876;23.474;2022-07-23T13:33:02;37.60;23.40
19389;DHT22;9830;41.876;23.474;2022-07-23T13:35:28;37.00;24.10
19389;DHT22;9830;41.876;23.474;2022-07-23T13:37:54;36.50;22.30
19389;DHT22;9830;41.876;23.474;2022-07-23T13:40:20;36.20;23.20
19389;DHT22;9830;41.876;23.474;2022-07-23T13:42:46;36.00;25.40
19389;DHT22;9830;41.876;23.474;2022-07-23T13:45:11;36.10;24.10
19389;DHT22;9830;41.876;23.474;2022-07-23T13:47:37;36.30;25.10
19389;DHT22;9830;41.876;23.474;2022-07-23T13:50:04;36.40;24.80
19389;DHT22;9830;41.876;23.474;2022-07-23T13:52:29;36.30;25.40
19389;DHT22;9830;41.876;23.474;2022-07-23T13:54:55;35.90;26.30
19389;DHT22;9830;41.876;23.474;2022-07-23T13:57:21;35.40;26.00
19389;DHT22;9830;41.876;23.474;2022-07-23T13:59:47;35.10;26.20
19389;DHT22;9830;41.876;23.474;2022-07-23T14:02:15;34.80;26.60
19389;DHT22;9830;41.876;23.474;2022-07-23T14:04:42;34.80;26.40
19389;DHT22;9830;41.876;23.474;2022-07-23T14:07:08;34.70;25.70
19389;DHT22;9830;41.876;23.474;2022-07-23T14:09:33;34.50;26.00
19389;DHT22;9830;41.876;23.474;2022-07-23T14:11:59;34.30;26.30
19389;DHT22;9830;41.876;23.474;2022-07-23T14:14:25;34.40;26.20
19389;DHT22;9830;41.876;23.474;2022-07-23T14:16:51;34.50;25.60
19389;DHT22;9830;41.876;23.474;2022-07-23T14:19:17;34.70;24.00
19389;DHT22;9830;41.876;23.474;2022-07-23T14:21:42;34.80;25.40
19389;DHT22;9830;41.876;23.474;2022-07-23T14:24:08;35.00;26.40
19389;DHT22;9830;41.876;23.474;2022-07-23T14:26:34;35.30;26.10
19389;DHT22;9830;41.876;23.474;2022-07-23T14:29:01;35.60;26.80
19389;DHT22;9830;41.876;23.474;2022-07-23T14:31:27;35.60;28.80
19389;DHT22;9830;41.876;23.474;2022-07-23T14:33:52;35.70;26.00
19389;DHT22;9830;41.876;23.474;2022-07-23T14:36:18;35.60;25.40
19389;DHT22;9830;41.876;23.474;2022-07-23T14:38:44;35.60;26.30
19389;DHT22;9830;41.876;23.474;2022-07-23T14:41:10;35.70;26.70
19389;DHT22;9830;41.876;23.474;2022-07-23T14:43:36;35.70;26.10
19389;DHT22;9830;41.876;23.474;2022-07-23T14:46:02;35.60;27.10
19389;DHT22;9830;41.876;23.474;2022-07-23T14:48:28;35.50;27.60
19389;DHT22;9830;41.876;23.474;2022-07-23T14:50:53;35.50;26.90
19389;DHT22;9830;41.876;23.474;2022-07-23T14:53:19;35.50;27.30
19389;DHT22;9830;41.876;23.474;2022-07-23T14:55:45;35.40;26.20
19389;DHT22;9830;41.876;23.474;2022-07-23T14:58:11;35.50;25.40
19389;DHT22;9830;41.876;23.474;2022-07-23T15:00:36;35.50;26.30
19389;DHT22;9830;41.876;23.474;2022-07-23T15:03:02;35.50;27.40
19389;DHT22;9830;41.876;23.474;2022-07-23T15:05:28;35.50;28.10
19389;DHT22;9830;41.876;23.474;2022-07-23T15:07:54;35.50;28.60
19389;DHT22;9830;41.876;23.474;2022-07-23T15:10:20;35.50;29.20
19389;DHT22;9830;41.876;23.474;2022-07-23T15:12:46;35.40;30.00
19389;DHT22;9830;41.876;23.474;2022-07-23T15:15:12;35.40;30.30
19389;DHT22;9830;41.876;23.474;2022-07-23T15:17:38;35.50;28.70
19389;DHT22;9830;41.876;23.474;2022-07-23T15:20:05;35.60;28.30
19389;DHT22;9830;41.876;23.474;2022-07-23T15:22:31;35.50;28.00
19389;DHT22;9830;41.876;23.474;2022-07-23T15:24:57;35.30;27.30
19389;DHT22;9830;41.876;23.474;2022-07-23T15:27:23;35.30;26.70
19389;DHT22;9830;41.876;23.474;2022-07-23T15:29:48;35.40;27.40
19389;DHT22;9830;41.876;23.474;2022-07-23T15:32:14;35.50;27.30
19389;DHT22;9830;41.876;23.474;2022-07-23T15:34:40;35.40;27.70
19389;DHT22;9830;41.876;23.474;2022-07-23T15:37:06;35.40;27.60
19389;DHT22;9830;41.876;23.474;2022-07-23T15:39:34;35.40;27.80
19389;DHT22;9830;41.876;23.474;2022-07-23T15:42:01;35.30;27.80
19389;DHT22;9830;41.876;23.474;2022-07-23T15:44:27;35.30;27.40
19389;DHT22;9830;41.876;23.474;2022-07-23T15:46:53;35.20;26.90
19389;DHT22;9830;41.876;23.474;2022-07-23T15:49:20;35.10;26.80
19389;DHT22;9830;41.876;23.474;2022-07-23T15:51:46;35.10;27.40
19389;DHT22;9830;41.876;23.474;2022-07-23T15:54:12;34.90;27.10
19389;DHT22;9830;41.876;23.474;2022-07-23T15:56:38;34.90;27.70
19389;DHT22;9830;41.876;23.474;2022-07-23T15:59:04;34.70;27.80
19389;DHT22;9830;41.876;23.474;2022-07-23T16:01:29;34.80;29.10
19389;DHT22;9830;41.876;23.474;2022-07-23T16:03:56;34.60;30.40
19389;DHT22;9830;41.876;23.474;2022-07-23T16:06:24;34.40;31.70
19389;DHT22;9830;41.876;23.474;2022-07-23T16:08:51;34.30;31.80
19389;DHT22;9830;41.876;23.474;2022-07-23T16:11:17;34.20;32.10
19389;DHT22;9830;41.876;23.474;2022-07-23T16:13:43;34.00;32.00
19389;DHT22;9830;41.876;23.474;2022-07-23T16:16:08;33.80;32.00
19389;DHT22;9830;41.876;23.474;2022-07-23T16:18:35;33.60;32.80